sensor_id;sensor_type;location;lat;lon;timestamp;temperature;humidity
18083;DHT22;9168;51.194;6.840;2023-05-10T00:01:11;14.20;99.90
18083;DHT22;9168;51.194;6.840;2023-05-10T00:03:38;14.20;99.90
18083;DHT22;9168;51.194;6.840;2023-05-10T00:06:05;14.20;99.90
18083;DHT22;9168;51.194;6.840;2023-05-10T00:08:32;14.20;99.90
18083;DHT22;9168;51.194;6.840;2023-05-10T00:11:01;14.20;99.90
18083;DHT22;9168;51.194;6.840;2023-05-10T00:13:28;14.20;99.90
18083;DHT22;9168;51.194;6.840;2023-05-10T00:15:54;14.20;99.90
18083;DHT22;9168;51.194;6.840;2023-05-10T00:18:21;14.20;99.90
18083;DHT22;9168;51.194;6.840;2023-05-10T00:20:48;14.20;99.90
18083;DHT22;9168;51.194;6.840;2023-05-10T00:23:15;14.20;99.90
18083;DHT22;9168;51.194;6.840;2023-05-10T00:25:42;14.20;99.90
18083;DHT22;9168;51.194;6.840;2023-05-10T00:28:10;14.20;99.90
18083;DHT22;9168;51.194;6.840;2023-05-10T00:30:37;14.20;99.90
18083;DHT22;9168;51.194;6.840;2023-05-10T00:33:04;14.10;99.90
18083;DHT22;9168;51.194;6.840;2023-05-10T00:35:31;14.10;99.90
18083;DHT22;9168;51.194;6.840;2023-05-10T00:37:57;14.10;99.90
18083;DHT22;9168;51.194;6.840;2023-05-10T00:40:24;14.10;99.90
18083;DHT22;9168;51.194;6.840;2023-05-10T00:42:51;14.10;99.90
18083;DHT22;9168;51.194;6.840;2023-05-10T00:45:20;14.10;99.90
18083;DHT22;9168;51.194;6.840;2023-05-10T00:47:47;14.10;99.90
18083;DHT22;9168;51.194;6.840;2023-05-10T00:50:14;14.10;99.90
18083;DHT22;9168;51.194;6.840;2023-05-10T00:52:41;14.10;99.90
18083;DHT22;9168;51.194;6.840;2023-05-10T00:55:10;14.10;99.90
18083;DHT22;9168;51.194;6.840;2023-05-10T00:57:38;14.10;99.90
18083;DHT22;9168;51.194;6.840;2023-05-10T01:00:06;14.10;99.90
18083;DHT22;9168;51.194;6.840;2023-05-10T01:02:34;14.10;99.90
18083;DHT22;9168;51.194;6.840;2023-05-10T01:05:02;14.10;99.90
18083;DHT22;9168;51.194;6.840;2023-05-10T01:07:30;14.10;99.90
18083;DHT22;9168;51.194;6.840;2023-05-10T01:09:57;14.10;99.90
18083;DHT22;9168;51.194;6.840;2023-05-10T01:12:24;14.10;99.90
18083;DHT22;9168;51.194;6.840;2023-05-10T01:14:51;14.20;99.90
18083;DHT22;9168;51.194;6.840;2023-05-10T01:17:19;14.10;99.90
18083;DHT22;9168;51.194;6.840;2023-05-10T01:19:47;14.20;99.90
18083;DHT22;9168;51.194;6.840;2023-05-10T01:22:30;14.10;99.90
18083;DHT22;9168;51.194;6.840;2023-05-10T01:25:32;14.10;99.90
18083;DHT22;9168;51.194;6.840;2023-05-10T01:31:13;14.10;99.90
18083;DHT22;9168;51.194;6.840;2023-05-10T01:33:50;14.10;99.90
18083;DHT22;9168;51.194;6.840;2023-05-10T01:36:23;14.10;99.90
18083;DHT22;9168;51.194;6.840;2023-05-10T01:38:59;14.00;99.90
18083;DHT22;9168;51.194;6.840;2023-05-10T01:41:32;14.00;99.90
18083;DHT22;9168;51.194;6.840;2023-05-10T01:44:07;14.00;99.90
18083;DHT22;9168;51.194;6.840;2023-05-10T01:46:38;14.00;99.90
18083;DHT22;9168;51.194;6.840;2023-05-10T01:49:09;14.00;99.90
18083;DHT22;9168;51.194;6.840;2023-05-10T01:51:41;13.90;99.90
18083;DHT22;9168;51.194;6.840;2023-05-10T01:54:13;13.90;99.90
18083;DHT22;9168;51.194;6.840;2023-05-10T01:56:41;13.90;99.90
18083;DHT22;9168;51.194;6.840;2023-05-10T01:59:12;13.90;99.90
18083;DHT22;9168;51.194;6.840;2023-05-10T02:01:43;13.90;99.90
18083;DHT22;9168;51.194;6.840;2023-05-10T02:04:16;13.90;99.90
18083;DHT22;9168;51.194;6.840;2023-05-10T02:06:45;13.90;99.90
18083;DHT22;9168;51.194;6.840;2023-05-10T02:09:14;13.90;99.90
18083;DHT22;9168;51.194;6.840;2023-05-10T02:11:42;13.80;99.90
18083;DHT22;9168;51.194;6.840;2023-05-10T02:14:11;13.80;99.90
18083;DHT22;9168;51.194;6.840;2023-05-10T02:16:39;13.80;99.90
18083;DHT22;9168;51.194;6.840;2023-05-10T02:19:07;13.80;99.90
18083;DHT22;9168;51.194;6.840;2023-05-10T02:21:37;13.80;99.90
18083;DHT22;9168;51.194;6.840;2023-05-10T02:24:05;13.70;99.90
18083;DHT22;9168;51.194;6.840;2023-05-10T02:26:35;13.70;99.90
18083;DHT22;9168;51.194;6.840;2023-05-10T02:29:03;13.70;99.90
18083;DHT22;9168;51.194;6.840;2023-05-10T02:31:31;13.70;99.90
18083;DHT22;9168;51.194;6.840;2023-05-10T02:33:59;13.70;99.90
18083;DHT22;9168;51.194;6.840;2023-05-10T02:36:26;13.70;99.90
18083;DHT22;9168;51.194;6.840;2023-05-10T02:38:56;13.70;99.90
18083;DHT22;9168;51.194;6.840;2023-05-10T02:41:24;13.70;99.90
18083;DHT22;9168;51.194;6.840;2023-05-10T02:43:56;13.70;99.90
18083;DHT22;9168;51.194;6.840;2023-05-10T02:46:23;13.70;99.90
18083;DHT22;9168;51.194;6.840;2023-05-10T02:48:51;13.70;99.90
18083;DHT22;9168;51.194;6.840;2023-05-10T02:51:18;13.70;99.90
18083;DHT22;9168;51.194;6.840;2023-05-10T02:53:47;13.80;99.90
18083;DHT22;9168;51.194;6.840;2023-05-10T02:56:23;13.80;99.90
18083;DHT22;9168;51.194;6.840;2023-05-10T02:58:51;13.80;99.90
18083;DHT22;9168;51.194;6.840;2023-05-10T03:01:18;13.80;99.90
18083;DHT22;9168;51.194;6.840;2023-05-10T03:03:45;13.80;99.90
18083;DHT22;9168;51.194;6.840;2023-05-10T03:06:12;13.80;99.90
18083;DHT22;9168;51.194;6.840;2023-05-10T03:08:39;13.80;99.90
18083;DHT22;9168;51.194;6.840;2023-05-10T03:11:22;13.80;99.90
18083;DHT22;9168;51.194;6.840;2023-05-10T03:14:00;13.80;99.90
18083;DHT22;9168;51.194;6.840;2023-05-10T03:16:38;13.80;99.90
18083;DHT22;9168;51.194;6.840;2023-05-10T03:19:17;13.80;99.90
18083;DHT22;9168;51.194;6.840;2023-05-10T03:21:50;13.80;99.90
18083;DHT22;9168;51.194;6.840;2023-05-10T03:24:20;13.80;99.90
18083;DHT22;9168;51.194;6.840;2023-05-10T03:26:49;13.80;99.90
18083;DHT22;9168;51.194;6.840;2023-05-10T03:29:19;13.80;99.90
18083;DHT22;9168;51.194;6.840;2023-05-10T03:31:47;13.80;99.90
18083;DHT22;9168;51.194;6.840;2023-05-10T03:34:14;13.70;99.90
18083;DHT22;9168;51.194;6.840;2023-05-10T03:36:41;13.70;99.90
18083;DHT22;9168;51.194;6.840;2023-05-10T03:39:07;13.70;99.90
18083;DHT22;9168;51.194;6.840;2023-05-10T03:41:35;13.70;99.90
18083;DHT22;9168;51.194;6.840;2023-05-10T03:44:04;13.70;99.90
18083;DHT22;9168;51.194;6.840;2023-05-10T03:46:31;13.70;99.90
18083;DHT22;9168;51.194;6.840;2023-05-10T03:49:01;13.80;99.90
18083;DHT22;9168;51.194;6.840;2023-05-10T03:51:28;13.80;99.90
18083;DHT22;9168;51.194;6.840;2023-05-10T03:53:56;13.70;99.90
18083;DHT22;9168;51.194;6.840;2023-05-10T03:56:23;13.70;99.90
18083;DHT22;9168;51.194;6.840;2023-05-10T03:58:50;13.80;99.90
18083;DHT22;9168;51.194;6.840;2023-05-10T04:01:18;13.80;99.90
18083;DHT22;9168;51.194;6.840;2023-05-10T04:03:45;13.80;99.90
18083;DHT22;9168;51.194;6.840;2023-05-10T04:06:12;13.80;99.90
18083;DHT22;9168;51.194;6.840;2023-05-10T04:08:38;13.80;99.90
18083;DHT22;9168;51.194;6.840;2023-05-10T04:11:06;13.70;99.90
18083;DHT22;9168;51.194;6.840;2023-05-10T04:13:33;13.80;99.90
18083;DHT22;9168;51.194;6.840;2023-05-10T04:16:00;13.80;99.90
18083;DHT22;9168;51.194;6.840;2023-05-10T04:18:29;13.80;99.90
18083;DHT22;9168;51.194;6.840;2023-05-10T04:20:56;13.80;99.90
18083;DHT22;9168;51.194;6.840;2023-05-10T04:23:22;13.80;99.90
18083;DHT22;9168;51.194;6.840;2023-05-10T04:25:49;13.80;99.90
18083;DHT22;9168;51.194;6.840;2023-05-10T04:28:16;13.80;99.90
18083;DHT22;9168;51.194;6.840;2023-05-10T04:30:43;13.80;99.90
18083;DHT22;9168;51.194;6.840;2023-05-10T04:33:10;13.80;99.90
18083;DHT22;9168;51.194;6.840;2023-05-10T04:35:38;13.80;99.90
18083;DHT22;9168;51.194;6.840;2023-05-10T04:38:05;13.80;99.90
18083;DHT22;9168;51.194;6.840;2023-05-10T04:40:32;13.80;99.90
18083;DHT22;9168;51.194;6.840;2023-05-10T04:42:59;13.80;99.90
18083;DHT22;9168;51.194;6.840;2023-05-10T04:45:26;13.80;99.90
18083;DHT22;9168;51.194;6.840;2023-05-10T04:47:53;13.80;99.90
18083;DHT22;9168;51.194;6.840;2023-05-10T04:50:20;13.90;99.90
18083;DHT22;9168;51.194;6.840;2023-05-10T04:52:48;13.90;99.90
18083;DHT22;9168;51.194;6.840;2023-05-10T04:55:15;13.90;99.90
18083;DHT22;9168;51.194;6.840;2023-05-10T04:57:42;13.90;99.90
18083;DHT22;9168;51.194;6.840;2023-05-10T05:00:11;13.90;99.90
18083;DHT22;9168;51.194;6.840;2023-05-10T05:02:38;13.90;99.90
18083;DHT22;9168;51.194;6.840;2023-05-10T05:05:06;13.90;99.90
18083;DHT22;9168;51.194;6.840;2023-05-10T05:07:32;14.00;99.90
18083;DHT22;9168;51.194;6.840;2023-05-10T05:10:01;14.00;99.90
18083;DHT22;9168;51.194;6.840;2023-05-10T05:12:28;14.00;99.90
18083;DHT22;9168;51.194;6.840;2023-05-10T05:14:55;14.00;99.90
18083;DHT22;9168;51.194;6.840;2023-05-10T05:17:22;14.00;99.90
18083;DHT22;9168;51.194;6.840;2023-05-10T05:19:49;14.00;99.90
18083;DHT22;9168;51.194;6.840;2023-05-10T05:22:16;14.00;99.90
18083;DHT22;9168;51.194;6.840;2023-05-10T05:24:43;14.00;99.90
18083;DHT22;9168;51.194;6.840;2023-05-10T05:27:11;14.10;99.90
18083;DHT22;9168;51.194;6.840;2023-05-10T05:29:38;14.10;99.90
18083;DHT22;9168;51.194;6.840;2023-05-10T05:32:05;14.10;99.90
18083;DHT22;9168;51.194;6.840;2023-05-10T05:34:33;14.10;99.90
18083;DHT22;9168;51.194;6.840;2023-05-10T05:37:00;14.10;99.90
18083;DHT22;9168;51.194;6.840;2023-05-10T05:39:27;14.10;99.90
18083;DHT22;9168;51.194;6.840;2023-05-10T05:41:54;14.10;99.90
18083;DHT22;9168;51.194;6.840;2023-05-10T05:44:23;14.10;99.90
18083;DHT22;9168;51.194;6.840;2023-05-10T05:46:49;14.10;99.90
18083;DHT22;9168;51.194;6.840;2023-05-10T05:49:16;14.10;99.90
18083;DHT22;9168;51.194;6.840;2023-05-10T05:51:43;14.00;99.90
18083;DHT22;9168;51.194;6.840;2023-05-10T05:54:10;13.90;99.90
18083;DHT22;9168;51.194;6.840;2023-05-10T05:56:37;14.00;99.90
18083;DHT22;9168;51.194;6.840;2023-05-10T05:59:04;14.00;99.90
18083;DHT22;9168;51.194;6.840;2023-05-10T06:01:32;14.00;99.90
18083;DHT22;9168;51.194;6.840;2023-05-10T06:03:59;14.00;99.90
18083;DHT22;9168;51.194;6.840;2023-05-10T06:06:26;14.00;99.90
18083;DHT22;9168;51.194;6.840;2023-05-10T06:08:53;14.00;99.90
18083;DHT22;9168;51.194;6.840;2023-05-10T06:11:20;14.00;99.90
18083;DHT22;9168;51.194;6.840;2023-05-10T06:13:47;14.00;99.90
18083;DHT22;9168;51.194;6.840;2023-05-10T06:16:14;14.00;99.90
18083;DHT22;9168;51.194;6.840;2023-05-10T06:18:42;13.90;99.90
18083;DHT22;9168;51.194;6.840;2023-05-10T06:21:09;13.90;99.90
18083;DHT22;9168;51.194;6.840;2023-05-10T06:23:36;13.90;99.90
18083;DHT22;9168;51.194;6.840;2023-05-10T06:26:03;13.90;99.90
18083;DHT22;9168;51.194;6.840;2023-05-10T06:28:29;13.90;99.90
18083;DHT22;9168;51.194;6.840;2023-05-10T06:30:57;13.90;99.90
18083;DHT22;9168;51.194;6.840;2023-05-10T06:33:24;13.90;99.90
18083;DHT22;9168;51.194;6.840;2023-05-10T06:35:52;14.00;99.90
18083;DHT22;9168;51.194;6.840;2023-05-10T06:38:19;13.90;99.90
18083;DHT22;9168;51.194;6.840;2023-05-10T06:40:46;13.90;99.90
18083;DHT22;9168;51.194;6.840;2023-05-10T06:43:13;13.80;99.90
18083;DHT22;9168;51.194;6.840;2023-05-10T06:45:40;13.90;99.90
18083;DHT22;9168;51.194;6.840;2023-05-10T06:48:07;13.90;99.90
18083;DHT22;9168;51.194;6.840;2023-05-10T06:50:35;13.90;99.90
18083;DHT22;9168;51.194;6.840;2023-05-10T06:53:03;13.90;99.90
18083;DHT22;9168;51.194;6.840;2023-05-10T06:55:30;13.90;99.90
18083;DHT22;9168;51.194;6.840;2023-05-10T06:57:57;13.90;99.90
18083;DHT22;9168;51.194;6.840;2023-05-10T07:00:24;13.90;99.90
18083;DHT22;9168;51.194;6.840;2023-05-10T07:02:50;13.90;99.90
18083;DHT22;9168;51.194;6.840;2023-05-10T07:05:18;13.90;99.90
18083;DHT22;9168;51.194;6.840;2023-05-10T07:07:45;13.90;99.90
18083;DHT22;9168;51.194;6.840;2023-05-10T07:10:13;14.00;99.90
18083;DHT22;9168;51.194;6.840;2023-05-10T07:12:40;14.10;99.90
18083;DHT22;9168;51.194;6.840;2023-05-10T07:15:08;14.20;99.90
18083;DHT22;9168;51.194;6.840;2023-05-10T07:17:35;14.20;99.90
18083;DHT22;9168;51.194;6.840;2023-05-10T07:20:02;14.20;99.90
18083;DHT22;9168;51.194;6.840;2023-05-10T07:22:29;14.30;99.90
18083;DHT22;9168;51.194;6.840;2023-05-10T07:24:56;14.30;99.90
18083;DHT22;9168;51.194;6.840;2023-05-10T07:27:24;14.30;99.90
18083;DHT22;9168;51.194;6.840;2023-05-10T07:29:51;14.30;99.90
18083;DHT22;9168;51.194;6.840;2023-05-10T07:32:18;14.30;99.90
18083;DHT22;9168;51.194;6.840;2023-05-10T07:34:45;14.30;99.90
18083;DHT22;9168;51.194;6.840;2023-05-10T07:37:12;14.30;99.90
18083;DHT22;9168;51.194;6.840;2023-05-10T07:39:39;14.40;99.90
18083;DHT22;9168;51.194;6.840;2023-05-10T07:42:06;14.30;99.90
18083;DHT22;9168;51.194;6.840;2023-05-10T07:44:35;14.40;99.90
18083;DHT22;9168;51.194;6.840;2023-05-10T07:47:02;14.40;99.90
18083;DHT22;9168;51.194;6.840;2023-05-10T07:49:28;14.40;99.90
18083;DHT22;9168;51.194;6.840;2023-05-10T07:51:55;14.40;99.90
18083;DHT22;9168;51.194;6.840;2023-05-10T07:54:22;14.40;99.90
18083;DHT22;9168;51.194;6.840;2023-05-10T07:56:49;14.50;99.90
18083;DHT22;9168;51.194;6.840;2023-05-10T07:59:17;14.50;99.90
18083;DHT22;9168;51.194;6.840;2023-05-10T08:01:45;14.50;99.90
18083;DHT22;9168;51.194;6.840;2023-05-10T08:04:12;14.60;99.90
18083;DHT22;9168;51.194;6.840;2023-05-10T08:06:39;14.60;99.90
18083;DHT22;9168;51.194;6.840;2023-05-10T08:09:06;14.60;99.90
18083;DHT22;9168;51.194;6.840;2023-05-10T08:11:33;14.60;99.90
18083;DHT22;9168;51.194;6.840;2023-05-10T08:14:02;14.70;99.90
18083;DHT22;9168;51.194;6.840;2023-05-10T08:16:28;14.80;99.90
18083;DHT22;9168;51.194;6.840;2023-05-10T08:18:57;15.00;99.90
18083;DHT22;9168;51.194;6.840;2023-05-10T08:21:23;15.20;99.90
18083;DHT22;9168;51.194;6.840;2023-05-10T08:23:51;15.30;99.90
18083;DHT22;9168;51.194;6.840;2023-05-10T08:26:18;15.30;99.90
18083;DHT22;9168;51.194;6.840;2023-05-10T08:28:46;15.40;99.90
18083;DHT22;9168;51.194;6.840;2023-05-10T08:31:13;15.40;99.90
18083;DHT22;9168;51.194;6.840;2023-05-10T08:33:40;15.40;99.90
18083;DHT22;9168;51.194;6.840;2023-05-10T08:36:08;15.30;99.90
18083;DHT22;9168;51.194;6.840;2023-05-10T08:38:35;15.30;99.90
18083;DHT22;9168;51.194;6.840;2023-05-10T08:41:03;15.20;99.90
18083;DHT22;9168;51.194;6.840;2023-05-10T08:43:31;15.20;99.90
18083;DHT22;9168;51.194;6.840;2023-05-10T08:46:00;15.30;99.90
18083;DHT22;9168;51.194;6.840;2023-05-10T08:48:29;15.30;99.90
18083;DHT22;9168;51.194;6.840;2023-05-10T08:50:57;15.40;99.90
18083;DHT22;9168;51.194;6.840;2023-05-10T08:53:26;15.50;99.90
18083;DHT22;9168;51.194;6.840;2023-05-10T08:55:55;15.50;99.90
18083;DHT22;9168;51.194;6.840;2023-05-10T08:58:22;15.50;99.90
18083;DHT22;9168;51.194;6.840;2023-05-10T09:00:49;15.50;99.90
18083;DHT22;9168;51.194;6.840;2023-05-10T09:03:18;15.50;99.90
18083;DHT22;9168;51.194;6.840;2023-05-10T09:05:45;15.40;99.90
18083;DHT22;9168;51.194;6.840;2023-05-10T09:08:14;15.40;99.90
18083;DHT22;9168;51.194;6.840;2023-05-10T09:10:44;15.30;99.90
18083;DHT22;9168;51.194;6.840;2023-05-10T09:13:13;15.30;99.90
18083;DHT22;9168;51.194;6.840;2023-05-10T09:15:41;15.30;99.90
18083;DHT22;9168;51.194;6.840;2023-05-10T09:18:07;15.30;99.90
18083;DHT22;9168;51.194;6.840;2023-05-10T09:20:34;15.20;99.90
18083;DHT22;9168;51.194;6.840;2023-05-10T09:23:01;15.20;99.90
18083;DHT22;9168;51.194;6.840;2023-05-10T09:25:28;15.20;99.90
18083;DHT22;9168;51.194;6.840;2023-05-10T09:27:56;15.20;99.90
18083;DHT22;9168;51.194;6.840;2023-05-10T09:30:24;15.30;99.90
18083;DHT22;9168;51.194;6.840;2023-05-10T09:32:53;15.30;99.90
18083;DHT22;9168;51.194;6.840;2023-05-10T09:35:21;15.40;99.90
18083;DHT22;9168;51.194;6.840;2023-05-10T09:37:49;15.50;99.90
18083;DHT22;9168;51.194;6.840;2023-05-10T09:40:17;15.50;99.90
18083;DHT22;9168;51.194;6.840;2023-05-10T09:42:52;15.50;99.90
18083;DHT22;9168;51.194;6.840;2023-05-10T09:45:21;15.50;99.90
18083;DHT22;9168;51.194;6.840;2023-05-10T09:47:48;15.50;99.90
18083;DHT22;9168;51.194;6.840;2023-05-10T09:50:15;15.50;99.90
18083;DHT22;9168;51.194;6.840;2023-05-10T09:52:47;15.50;99.90
18083;DHT22;9168;51.194;6.840;2023-05-10T09:55:15;15.50;99.90
18083;DHT22;9168;51.194;6.840;2023-05-10T09:57:42;15.60;99.90
18083;DHT22;9168;51.194;6.840;2023-05-10T10:00:09;15.60;99.90
18083;DHT22;9168;51.194;6.840;2023-05-10T10:02:38;15.70;99.90
18083;DHT22;9168;51.194;6.840;2023-05-10T10:05:07;15.70;99.90
18083;DHT22;9168;51.194;6.840;2023-05-10T10:07:34;15.80;99.90
18083;DHT22;9168;51.194;6.840;2023-05-10T10:10:01;15.70;99.90
18083;DHT22;9168;51.194;6.840;2023-05-10T10:12:30;15.70;99.90
18083;DHT22;9168;51.194;6.840;2023-05-10T10:14:59;15.70;99.90
18083;DHT22;9168;51.194;6.840;2023-05-10T10:17:27;15.60;99.90
18083;DHT22;9168;51.194;6.840;2023-05-10T10:19:57;15.50;99.90
18083;DHT22;9168;51.194;6.840;2023-05-10T10:22:24;15.40;99.90
18083;DHT22;9168;51.194;6.840;2023-05-10T10:24:51;15.30;99.90
18083;DHT22;9168;51.194;6.840;2023-05-10T10:27:23;15.30;99.90
18083;DHT22;9168;51.194;6.840;2023-05-10T10:30:00;15.40;99.90
18083;DHT22;9168;51.194;6.840;2023-05-10T10:32:35;15.40;99.90
18083;DHT22;9168;51.194;6.840;2023-05-10T10:35:06;15.60;99.90
18083;DHT22;9168;51.194;6.840;2023-05-10T10:37:44;15.80;99.90
18083;DHT22;9168;51.194;6.840;2023-05-10T10:40:28;15.90;99.90
18083;DHT22;9168;51.194;6.840;2023-05-10T10:42:55;16.10;99.90
18083;DHT22;9168;51.194;6.840;2023-05-10T10:45:23;16.30;99.90
18083;DHT22;9168;51.194;6.840;2023-05-10T10:50:44;16.60;99.90
18083;DHT22;9168;51.194;6.840;2023-05-10T10:53:12;16.60;99.90
18083;DHT22;9168;51.194;6.840;2023-05-10T10:55:46;16.60;99.90
18083;DHT22;9168;51.194;6.840;2023-05-10T10:58:29;16.50;99.90
18083;DHT22;9168;51.194;6.840;2023-05-10T11:01:10;16.40;99.90
18083;DHT22;9168;51.194;6.840;2023-05-10T11:03:37;16.40;99.90
18083;DHT22;9168;51.194;6.840;2023-05-10T11:06:06;16.30;99.90
18083;DHT22;9168;51.194;6.840;2023-05-10T11:08:34;16.20;99.90
18083;DHT22;9168;51.194;6.840;2023-05-10T11:11:06;16.20;99.90
18083;DHT22;9168;51.194;6.840;2023-05-10T11:13:39;16.10;99.90
18083;DHT22;9168;51.194;6.840;2023-05-10T11:16:14;16.10;99.90
18083;DHT22;9168;51.194;6.840;2023-05-10T11:18:59;16.00;99.90
18083;DHT22;9168;51.194;6.840;2023-05-10T11:21:29;16.00;99.90
18083;DHT22;9168;51.194;6.840;2023-05-10T11:23:58;16.00;99.90
18083;DHT22;9168;51.194;6.840;2023-05-10T11:26:27;16.00;99.90
18083;DHT22;9168;51.194;6.840;2023-05-10T11:28:56;16.00;99.90
18083;DHT22;9168;51.194;6.840;2023-05-10T11:31:24;16.10;99.90
18083;DHT22;9168;51.194;6.840;2023-05-10T11:33:53;16.10;99.90
18083;DHT22;9168;51.194;6.840;2023-05-10T11:36:23;16.10;99.90
18083;DHT22;9168;51.194;6.840;2023-05-10T11:38:53;16.10;99.90
18083;DHT22;9168;51.194;6.840;2023-05-10T11:41:21;16.10;99.90
18083;DHT22;9168;51.194;6.840;2023-05-10T11:43:50;16.10;99.90
18083;DHT22;9168;51.194;6.840;2023-05-10T11:46:19;16.20;99.90
18083;DHT22;9168;51.194;6.840;2023-05-10T11:48:48;16.30;99.90
18083;DHT22;9168;51.194;6.840;2023-05-10T11:51:19;16.40;99.90
18083;DHT22;9168;51.194;6.840;2023-05-10T11:53:46;16.50;99.90
18083;DHT22;9168;51.194;6.840;2023-05-10T11:56:14;16.50;99.90
18083;DHT22;9168;51.194;6.840;2023-05-10T11:58:41;16.40;99.90
18083;DHT22;9168;51.194;6.840;2023-05-10T12:01:09;16.40;99.90
18083;DHT22;9168;51.194;6.840;2023-05-10T12:03:36;16.40;99.90
18083;DHT22;9168;51.194;6.840;2023-05-10T12:06:04;16.50;99.90
18083;DHT22;9168;51.194;6.840;2023-05-10T12:08:31;16.60;99.90
18083;DHT22;9168;51.194;6.840;2023-05-10T12:11:05;16.60;99.90
18083;DHT22;9168;51.194;6.840;2023-05-10T12:13:37;16.70;99.90
18083;DHT22;9168;51.194;6.840;2023-05-10T12:16:13;16.70;99.90
18083;DHT22;9168;51.194;6.840;2023-05-10T12:18:40;16.70;99.90
18083;DHT22;9168;51.194;6.840;2023-05-10T12:21:09;16.60;99.90
18083;DHT22;9168;51.194;6.840;2023-05-10T12:23:36;16.60;99.90
18083;DHT22;9168;51.194;6.840;2023-05-10T12:26:04;16.50;99.90
18083;DHT22;9168;51.194;6.840;2023-05-10T12:28:32;16.40;99.90
18083;DHT22;9168;51.194;6.840;2023-05-10T12:31:00;16.30;99.90
18083;DHT22;9168;51.194;6.840;2023-05-10T12:33:35;16.30;99.90
18083;DHT22;9168;51.194;6.840;2023-05-10T12:36:02;16.20;99.90
18083;DHT22;9168;51.194;6.840;2023-05-10T12:38:33;16.10;99.90
18083;DHT22;9168;51.194;6.840;2023-05-10T12:41:01;16.10;99.90
18083;DHT22;9168;51.194;6.840;2023-05-10T12:43:28;16.10;99.90
18083;DHT22;9168;51.194;6.840;2023-05-10T12:45:55;16.00;99.90
18083;DHT22;9168;51.194;6.840;2023-05-10T12:48:24;16.00;99.90
18083;DHT22;9168;51.194;6.840;2023-05-10T12:50:51;16.00;99.90
18083;DHT22;9168;51.194;6.840;2023-05-10T12:53:18;15.80;99.90
18083;DHT22;9168;51.194;6.840;2023-05-10T12:55:45;15.80;99.90
18083;DHT22;9168;51.194;6.840;2023-05-10T12:58:12;15.70;99.90
18083;DHT22;9168;51.194;6.840;2023-05-10T13:00:39;15.70;99.90
18083;DHT22;9168;51.194;6.840;2023-05-10T13:03:05;15.70;99.90
18083;DHT22;9168;51.194;6.840;2023-05-10T13:05:34;15.80;99.90
18083;DHT22;9168;51.194;6.840;2023-05-10T13:08:01;15.80;99.90
18083;DHT22;9168;51.194;6.840;2023-05-10T13:10:29;15.90;99.90
18083;DHT22;9168;51.194;6.840;2023-05-10T13:12:57;15.90;99.90
18083;DHT22;9168;51.194;6.840;2023-05-10T13:15:24;15.90;99.90
18083;DHT22;9168;51.194;6.840;2023-05-10T13:17:51;15.90;99.90
18083;DHT22;9168;51.194;6.840;2023-05-10T13:20:18;15.90;99.90
18083;DHT22;9168;51.194;6.840;2023-05-10T13:22:46;15.90;99.90
18083;DHT22;9168;51.194;6.840;2023-05-10T13:25:13;15.90;99.90
18083;DHT22;9168;51.194;6.840;2023-05-10T13:27:40;15.80;99.90
18083;DHT22;9168;51.194;6.840;2023-05-10T13:30:08;15.70;99.90
18083;DHT22;9168;51.194;6.840;2023-05-10T13:32:35;15.70;99.90
18083;DHT22;9168;51.194;6.840;2023-05-10T13:35:03;15.60;99.90
18083;DHT22;9168;51.194;6.840;2023-05-10T13:37:30;15.60;99.90
18083;DHT22;9168;51.194;6.840;2023-05-10T13:39:58;15.60;99.90
18083;DHT22;9168;51.194;6.840;2023-05-10T13:42:25;15.70;99.90
18083;DHT22;9168;51.194;6.840;2023-05-10T13:44:52;15.70;99.90
18083;DHT22;9168;51.194;6.840;2023-05-10T13:47:19;15.80;99.90
18083;DHT22;9168;51.194;6.840;2023-05-10T13:49:47;15.90;99.90
18083;DHT22;9168;51.194;6.840;2023-05-10T13:52:14;16.00;99.90
18083;DHT22;9168;51.194;6.840;2023-05-10T13:54:40;16.00;99.90
18083;DHT22;9168;51.194;6.840;2023-05-10T13:57:09;16.10;99.90
18083;DHT22;9168;51.194;6.840;2023-05-10T13:59:38;16.10;99.90
18083;DHT22;9168;51.194;6.840;2023-05-10T14:02:05;16.20;99.90
18083;DHT22;9168;51.194;6.840;2023-05-10T14:04:32;16.20;99.90
18083;DHT22;9168;51.194;6.840;2023-05-10T14:07:00;16.10;99.90
18083;DHT22;9168;51.194;6.840;2023-05-10T14:09:27;16.10;99.90
18083;DHT22;9168;51.194;6.840;2023-05-10T14:11:54;16.00;99.90
18083;DHT22;9168;51.194;6.840;2023-05-10T14:14:22;16.00;99.90
18083;DHT22;9168;51.194;6.840;2023-05-10T14:16:49;16.00;99.90
18083;DHT22;9168;51.194;6.840;2023-05-10T14:19:16;15.80;99.90
18083;DHT22;9168;51.194;6.840;2023-05-10T14:21:44;15.80;99.90
18083;DHT22;9168;51.194;6.840;2023-05-10T14:24:11;15.80;99.90
18083;DHT22;9168;51.194;6.840;2023-05-10T14:26:37;15.80;99.90
18083;DHT22;9168;51.194;6.840;2023-05-10T14:29:04;15.80;99.90
18083;DHT22;9168;51.194;6.840;2023-05-10T14:31:35;15.80;99.90
18083;DHT22;9168;51.194;6.840;2023-05-10T14:34:02;15.80;99.90
18083;DHT22;9168;51.194;6.840;2023-05-10T14:36:29;15.80;99.90
18083;DHT22;9168;51.194;6.840;2023-05-10T14:38:55;15.80;99.90
18083;DHT22;9168;51.194;6.840;2023-05-10T14:41:22;15.70;99.90
18083;DHT22;9168;51.194;6.840;2023-05-10T14:43:50;15.70;99.90
18083;DHT22;9168;51.194;6.840;2023-05-10T14:46:19;15.80;99.90
18083;DHT22;9168;51.194;6.840;2023-05-10T14:48:47;15.80;99.90
18083;DHT22;9168;51.194;6.840;2023-05-10T14:51:14;15.80;99.90
18083;DHT22;9168;51.194;6.840;2023-05-10T14:53:41;15.80;99.90
18083;DHT22;9168;51.194;6.840;2023-05-10T14:56:08;15.90;99.90
18083;DHT22;9168;51.194;6.840;2023-05-10T14:58:35;15.90;99.90
18083;DHT22;9168;51.194;6.840;2023-05-10T15:01:01;15.80;99.90
18083;DHT22;9168;51.194;6.840;2023-05-10T15:03:28;15.90;99.90
18083;DHT22;9168;51.194;6.840;2023-05-10T15:05:56;15.90;99.90
18083;DHT22;9168;51.194;6.840;2023-05-10T15:08:24;16.00;99.90
18083;DHT22;9168;51.194;6.840;2023-05-10T15:10:51;16.00;99.90
18083;DHT22;9168;51.194;6.840;2023-05-10T15:13:18;16.10;99.90
18083;DHT22;9168;51.194;6.840;2023-05-10T15:15:45;16.10;99.90
18083;DHT22;9168;51.194;6.840;2023-05-10T15:18:11;16.10;99.90
18083;DHT22;9168;51.194;6.840;2023-05-10T15:20:38;16.10;99.90
18083;DHT22;9168;51.194;6.840;2023-05-10T15:23:07;16.10;99.90
18083;DHT22;9168;51.194;6.840;2023-05-10T15:25:34;16.10;99.90
18083;DHT22;9168;51.194;6.840;2023-05-10T15:28:03;16.00;99.90
18083;DHT22;9168;51.194;6.840;2023-05-10T15:30:30;16.10;99.90
18083;DHT22;9168;51.194;6.840;2023-05-10T15:32:57;16.10;99.90
18083;DHT22;9168;51.194;6.840;2023-05-10T15:35:23;16.10;99.90
18083;DHT22;9168;51.194;6.840;2023-05-10T15:37:52;16.10;99.90
18083;DHT22;9168;51.194;6.840;2023-05-10T15:40:20;16.10;99.90
18083;DHT22;9168;51.194;6.840;2023-05-10T15:42:47;16.10;99.90
18083;DHT22;9168;51.194;6.840;2023-05-10T15:45:14;16.10;99.90
18083;DHT22;9168;51.194;6.840;2023-05-10T15:47:41;16.10;99.90
18083;DHT22;9168;51.194;6.840;2023-05-10T15:50:10;16.10;99.90
18083;DHT22;9168;51.194;6.840;2023-05-10T15:52:36;16.10;99.90
18083;DHT22;9168;51.194;6.840;2023-05-10T15:55:04;16.10;99.90
18083;DHT22;9168;51.194;6.840;2023-05-10T15:57:38;16.00;99.90